Airfield :
LOGIN :

Register | Disclaimer

   EN    FR    IT 

 










Legend :    VFR   Marginal VFR   IFR   Intensive IFR   Very Intensive IFR
Visi :
Ceiling :
>= 8 km
>= 3000ft
5 to 8 km
1000 to 3000 ft
1500m to 5 km
500 to 1000 ft
800 to 1500m
200 to 500 ft
< 800m
< 200 ft
Symbols :   Thunderstorms  Fog  Heavy snow  Heavy precipitations  Wind > 20 kt
SIGMETs :     Misc.  Thunderstorms  Icing  Turbulence  Mountain Waves  Volcanic Ashes







- Airport Elevation : 38 ft
- IATA code : BOH
- Download approach charts


EGHH - Bournemouth

CURRENT METAR :
  • 181150Z 26011KT 9999 SCT019 BKN027 10/08 Q1024

EXPIRED METARs :
  • 181120Z 25010KT 9999 BKN020 10/08 Q1024
  • 181050Z 26009KT 9999 SCT019 BKN026 10/08 Q1024
  • 181020Z 26009KT 9999 -RA SCT021 BKN025 10/08 Q1024
  • 180950Z 25009KT 9999 -RA SCT021 BKN025 10/07 Q1024
  • 180920Z 26008KT 9999 BKN021 09/07 Q1025

TAF TAF EGHH
Valid from the 18 at 12:00 until the 18 at 21:00 UTC


181057Z 1812/1821 25008KT 9999 SCT020
TEMPO 1812/1819 8000 -RA BKN014
PROB30
TEMPO 1814/1819 4000 RADZ BKN004
ATIS : +44 1202 364 151
Met : +44 1202 364 158 (TAF)
No reported NOTAMs for that airfield.



MET'MAP, your aeronautical weather chart ! - Copyright ORBIFLY December 2007 - Disclaimer

ORBIFLY MET'MAP TEAM :

Programming & Development : Alexandra Zaïnal
Concept & Development : Baudouin d'Aumeries
Co-Development & Prog : Marc-Olivier Méhu
Technical & hardware support : Manuel Goepfert

Contact : metmap@orbifly.com




SOURCES & CREDITS :

   NOAA